Time;durP1;ratioP1;P1;durP2;ratioP2;P2;SDS_P1;SDS_P2;PMS_P1;PMS_P2;Temp;Humidity;BMP_temperature;BMP_pressure;BME280_temperature;BME280_humidity;BME280_pressure;Samples;Min_cycle;Max_cycle;Signal;HPM_P1;HPM_P2
2022/10/29 00:00:20;;;;;;;2.55;1.83;;;;;;;17.44;66.84;101598.09;5098103;28;20028;-82
2022/10/29 00:02:50;;;;;;;1.00;1.00;;;;;;;17.39;67.19;101598.28;5113780;28;20043;-81
2022/10/29 00:05:21;;;;;;;4.00;2.13;;;;;;;17.36;67.64;101601.03;5097405;29;20035;-81
2022/10/29 00:07:51;;;;;;;17.98;1.70;;;;;;;17.37;67.49;101594.81;5100716;28;20651;-82
2022/10/29 00:10:22;;;;;;;2.65;2.33;;;;;;;17.38;67.58;101596.53;5086214;29;20019;-82
2022/10/29 00:12:59;;;;;;;1.52;1.42;;;;;;;17.40;67.04;101596.47;5097243;29;20124;-82
2022/10/29 00:15:30;;;;;;;1.88;1.75;;;;;;;17.38;67.34;101591.25;5096059;29;20062;-81
2022/10/29 00:18:00;;;;;;;2.05;1.90;;;;;;;17.41;66.91;101598.19;5099902;28;20063;-80
2022/10/29 00:20:31;;;;;;;1.45;1.20;;;;;;;17.35;67.38;101590.50;5129472;28;20817;-81
2022/10/29 00:23:03;;;;;;;3.10;2.10;;;;;;;17.36;67.28;101593.09;5070612;29;20044;-81
2022/10/29 00:25:34;;;;;;;1.58;1.48;;;;;;;17.36;67.29;101603.69;5116341;29;20027;-81
2022/10/29 00:28:04;;;;;;;1.63;1.52;;;;;;;17.34;67.10;101602.03;5071231;29;20038;-82
2022/10/29 00:30:36;;;;;;;1.83;1.58;;;;;;;17.34;67.52;101600.25;5085123;29;20147;-82
2022/10/29 00:33:07;;;;;;;9.90;1.27;;;;;;;17.31;67.51;101603.88;5130360;28;20115;-81
2022/10/29 00:35:38;;;;;;;1.70;1.20;;;;;;;17.31;67.41;101601.22;5102289;29;20131;-82
2022/10/29 00:38:10;;;;;;;5.45;3.13;;;;;;;17.35;67.53;101595.81;5096090;28;20127;-81
2022/10/29 00:40:40;;;;;;;1.48;0.98;;;;;;;17.35;67.72;101595.81;5133101;28;20039;-82
2022/10/29 00:43:13;;;;;;;1.25;1.13;;;;;;;17.37;67.24;101596.63;5097263;28;20047;-81
2022/10/29 00:45:57;;;;;;;4.60;1.80;;;;;;;17.35;67.26;101599.34;5116213;29;20123;-82
2022/10/29 00:48:32;;;;;;;1.35;1.25;;;;;;;17.31;67.92;101601.22;5100093;29;20042;-82
2022/10/29 00:51:06;;;;;;;0.70;0.70;;;;;;;17.31;67.72;101587.13;5097866;29;20020;-82
2022/10/29 00:53:45;;;;;;;0.82;0.65;;;;;;;17.33;67.50;101581.75;5117148;29;20044;-82
2022/10/29 00:56:16;;;;;;;0.73;0.73;;;;;;;17.33;67.57;101579.09;5119194;28;20024;-82
2022/10/29 00:58:47;;;;;;;0.82;0.82;;;;;;;17.31;67.58;101579.16;5098087;28;20698;-82
2022/10/29 01:01:20;;;;;;;2.15;1.10;;;;;;;17.33;67.46;101568.47;5101431;29;20040;-82
2022/10/29 01:03:53;;;;;;;1.27;1.17;;;;;;;17.33;67.19;101571.13;5106320;28;20071;-82
2022/10/29 01:06:23;;;;;;;1.55;1.45;;;;;;;17.25;67.94;101577.63;5100952;29;20032;-82
2022/10/29 01:08:54;;;;;;;2.30;1.83;;;;;;;17.24;67.78;101569.75;5069480;29;20032;-82
2022/10/29 01:12:04;;;;;;;0.52;0.52;;;;;;;17.22;67.73;101576.88;5098681;29;20035;-82
2022/10/29 01:15:13;;;;;;;4.03;1.55;;;;;;;17.20;67.96;101587.56;5113787;28;20478;-82
2022/10/29 01:17:53;;;;;;;0.57;0.57;;;;;;;17.19;67.97;101585.84;5116329;28;20046;-82
2022/10/29 01:20:42;;;;;;;2.40;2.13;;;;;;;17.21;67.77;101578.69;5113473;28;20036;-82
2022/10/29 01:23:37;;;;;;;0.50;0.50;;;;;;;17.22;67.87;101567.16;5109620;28;20043;-82
2022/10/29 01:26:23;;;;;;;1.70;1.10;;;;;;;17.18;67.84;101573.50;5110447;29;20063;-82
2022/10/29 01:29:28;;;;;;;5.28;2.35;;;;;;;17.22;67.68;101572.47;5082976;29;20032;-82
2022/10/29 01:32:22;;;;;;;1.65;1.15;;;;;;;17.21;67.78;101568.09;5092071;28;20045;-81
2022/10/29 01:35:17;;;;;;;1.75;1.45;;;;;;;17.14;67.85;101563.97;5097205;29;20087;-82
2022/10/29 01:38:18;;;;;;;0.73;0.73;;;;;;;17.13;67.94;101562.25;5067763;29;20051;-82
2022/10/29 01:41:01;;;;;;;1.40;1.30;;;;;;;17.09;67.89;101553.56;5112741;28;20397;-82
2022/10/29 01:44:00;;;;;;;1.67;1.58;;;;;;;17.13;67.85;101563.09;5114361;28;20392;-82
2022/10/29 01:47:01;;;;;;;0.47;0.47;;;;;;;17.08;68.10;101561.53;5078250;29;20179;-81
2022/10/29 01:49:46;;;;;;;3.20;1.55;;;;;;;17.03;68.40;101555.59;5114375;28;20036;-82
2022/10/29 01:52:20;;;;;;;1.15;1.05;;;;;;;17.06;67.99;101552.81;5109773;28;20072;-81
2022/10/29 01:54:51;;;;;;;18.10;1.85;;;;;;;17.01;68.43;101560.94;5117867;29;20040;-82
2022/10/29 01:57:29;;;;;;;1.40;1.30;;;;;;;17.04;67.92;101554.66;5099094;29;20110;-82
2022/10/29 02:00:06;;;;;;;1.33;1.17;;;;;;;17.03;67.87;101553.78;5092364;28;20062;-82
2022/10/29 02:03:10;;;;;;;1.67;1.08;;;;;;;17.06;67.94;101558.13;5115310;28;20044;-82
2022/10/29 02:06:01;;;;;;;2.17;1.95;;;;;;;17.06;68.09;101547.50;5096768;29;20036;-82
2022/10/29 02:08:37;;;;;;;1.13;1.00;;;;;;;17.00;68.12;101543.31;5093873;28;20032;-82
2022/10/29 02:11:20;;;;;;;0.40;0.40;;;;;;;16.99;67.97;101534.47;5100026;29;20111;-82
2022/10/29 02:14:09;;;;;;;1.23;1.20;;;;;;;17.02;67.80;101532.63;5093710;28;20048;-81
2022/10/29 02:16:46;;;;;;;0.68;0.60;;;;;;;16.97;68.04;101532.84;5094193;28;20036;-82
2022/10/29 02:19:19;;;;;;;2.15;1.88;;;;;;;16.97;68.01;101533.72;5115048;28;20043;-82
2022/10/29 02:21:50;;;;;;;0.63;0.63;;;;;;;16.95;68.04;101530.25;5114779;28;20117;-82
2022/10/29 02:24:24;;;;;;;0.80;0.75;;;;;;;16.94;68.01;101527.69;5123010;29;20124;-82
2022/10/29 02:26:54;;;;;;;2.28;1.10;;;;;;;16.88;68.48;101523.44;5111740;28;20047;-82
2022/10/29 02:29:25;;;;;;;1.05;0.73;;;;;;;16.83;68.78;101531.59;5098548;28;20031;-82
2022/10/29 02:31:55;;;;;;;1.02;1.00;;;;;;;16.86;68.48;101529.75;5110595;28;20028;-82
2022/10/29 02:34:26;;;;;;;2.30;1.60;;;;;;;16.82;68.63;101521.91;5132901;28;20027;-81
2022/10/29 02:36:56;;;;;;;1.08;1.00;;;;;;;16.86;68.55;101533.25;5127801;28;20113;-82
2022/10/29 02:39:27;;;;;;;2.50;1.75;;;;;;;16.87;68.15;101521.72;5125177;28;20550;-82
2022/10/29 02:41:57;;;;;;;7.05;2.05;;;;;;;16.86;67.96;101522.63;5095836;28;20063;-82
2022/10/29 02:44:28;;;;;;;3.72;2.67;;;;;;;16.86;68.24;101525.28;5065035;29;20023;-82
2022/10/29 02:46:58;;;;;;;6.85;1.63;;;;;;;16.81;68.39;101529.94;5091676;28;20118;-82
2022/10/29 02:49:29;;;;;;;1.13;0.63;;;;;;;16.79;68.54;101523.81;5097538;29;20459;-82
2022/10/29 02:51:59;;;;;;;0.50;0.50;;;;;;;16.75;68.73;101514.25;5097548;28;20062;-82
2022/10/29 02:54:30;;;;;;;1.30;1.20;;;;;;;16.79;68.37;101519.38;5097307;29;20475;-82
2022/10/29 02:57:03;;;;;;;0.75;0.70;;;;;;;16.75;68.71;101511.59;5127060;28;20035;-82
2022/10/29 02:59:39;;;;;;;2.38;1.40;;;;;;;16.76;68.52;101515.97;5112789;29;20116;-82
2022/10/29 03:02:11;;;;;;;1.58;1.05;;;;;;;16.71;68.77;101510.00;5106566;28;20040;-82
2022/10/29 03:04:43;;;;;;;2.08;1.88;;;;;;;16.71;68.49;101500.25;5108590;29;20051;-81
2022/10/29 03:07:14;;;;;;;3.45;2.85;;;;;;;16.69;68.49;101499.50;5114925;28;20043;-82
2022/10/29 03:10:02;;;;;;;0.38;0.38;;;;;;;16.69;68.51;101502.13;5104033;29;20042;-82
2022/10/29 03:12:33;;;;;;;1.40;1.30;;;;;;;16.61;68.71;101499.78;5131065;28;20473;-81
2022/10/29 03:15:04;;;;;;;8.68;2.72;;;;;;;16.60;68.62;101503.34;5105601;29;20107;-81
2022/10/29 03:17:35;;;;;;;0.77;0.77;;;;;;;16.55;68.93;101500.03;5104517;29;20485;-82
2022/10/29 03:20:06;;;;;;;1.30;1.20;;;;;;;16.58;68.59;101493.75;5130969;28;20043;-81
2022/10/29 03:22:36;;;;;;;2.65;2.10;;;;;;;16.55;68.57;101485.91;5103170;28;20047;-81
2022/10/29 03:25:08;;;;;;;0.55;0.55;;;;;;;16.58;68.50;101484.00;5078948;29;20028;-82
2022/10/29 03:27:45;;;;;;;3.22;1.23;;;;;;;16.58;68.81;101478.69;5118015;28;20052;-82
2022/10/29 03:30:16;;;;;;;3.40;1.60;;;;;;;16.59;68.58;101482.22;5095984;29;20091;-82
2022/10/29 03:32:47;;;;;;;0.93;0.93;;;;;;;16.54;68.88;101477.13;5116921;28;20040;-81
2022/10/29 03:35:18;;;;;;;1.92;1.20;;;;;;;16.53;68.69;101467.44;5115190;28;20045;-81
2022/10/29 03:37:51;;;;;;;1.10;1.10;;;;;;;16.51;68.65;101462.22;5131329;28;20051;-81
2022/10/29 03:40:22;;;;;;;1.35;1.25;;;;;;;16.47;69.15;101465.03;5135843;28;20107;-81
2022/10/29 03:42:52;;;;;;;4.57;2.05;;;;;;;16.47;68.89;101462.41;5136039;28;20628;-81
2022/10/29 03:45:23;;;;;;;1.55;0.85;;;;;;;16.43;69.26;101466.06;5131886;28;20122;-81
2022/10/29 03:47:54;;;;;;;0.82;0.82;;;;;;;16.45;68.86;101466.88;5114116;28;20099;-81
2022/10/29 03:50:25;;;;;;;0.82;0.82;;;;;;;16.39;69.10;101467.97;5112080;29;20046;-82
2022/10/29 03:52:55;;;;;;;0.43;0.43;;;;;;;16.40;68.81;101464.41;5135621;28;20036;-81
2022/10/29 03:55:29;;;;;;;0.65;0.65;;;;;;;16.42;68.75;101457.28;5101637;29;20034;-81
2022/10/29 03:57:59;;;;;;;1.08;1.08;;;;;;;16.41;68.93;101450.25;5117507;28;20123;-81
2022/10/29 04:00:29;;;;;;;2.83;1.58;;;;;;;16.41;68.88;101463.50;5101000;29;20036;-81
2022/10/29 04:03:00;;;;;;;1.08;1.02;;;;;;;16.41;68.93;101470.56;5109052;29;20055;-81
2022/10/29 04:05:31;;;;;;;2.50;1.27;;;;;;;16.42;68.77;101477.59;5120472;29;20032;-81
2022/10/29 04:08:03;;;;;;;0.63;0.63;;;;;;;16.35;68.90;101469.88;5115944;28;20060;-81
2022/10/29 04:10:34;;;;;;;0.73;0.65;;;;;;;16.35;68.85;101459.31;5122137;29;20043;-81
2022/10/29 04:13:05;;;;;;;0.93;0.93;;;;;;;16.31;68.97;101454.19;5105488;29;20040;-81
2022/10/29 04:15:35;;;;;;;2.50;2.30;;;;;;;16.25;69.09;101452.63;5078426;29;20040;-81
2022/10/29 04:18:12;;;;;;;0.50;0.50;;;;;;;16.26;69.06;101453.50;5106249;28;20104;-83
2022/10/29 04:20:43;;;;;;;0.98;0.98;;;;;;;16.20;69.61;101454.63;5104664;29;20036;-81
2022/10/29 04:23:14;;;;;;;1.85;1.38;;;;;;;16.26;68.94;101454.38;5100041;28;20043;-81
2022/10/29 04:25:57;;;;;;;1.00;1.00;;;;;;;16.28;68.87;101452.53;5078966;29;20032;-81
2022/10/29 04:28:28;;;;;;;0.73;0.73;;;;;;;16.26;68.81;101450.88;5114602;28;20039;-81
2022/10/29 04:31:06;;;;;;;1.63;0.75;;;;;;;16.25;69.03;101444.69;5129724;28;20897;-81
2022/10/29 04:33:37;;;;;;;1.00;0.98;;;;;;;16.26;69.03;101434.97;5113164;28;20091;-81
2022/10/29 04:36:08;;;;;;;1.08;0.98;;;;;;;16.15;69.57;101424.81;5115583;29;20649;-81
2022/10/29 04:38:38;;;;;;;2.15;1.83;;;;;;;16.15;69.43;101409.78;5101369;29;20032;-81
2022/10/29 04:41:09;;;;;;;4.25;1.52;;;;;;;16.07;70.71;101403.09;5097609;29;20054;-81
2022/10/29 04:43:40;;;;;;;0.73;0.73;;;;;;;16.05;70.15;101406.66;5100522;28;20098;-81
2022/10/29 04:46:10;;;;;;;1.15;0.90;;;;;;;16.08;69.69;101404.78;5127675;28;20119;-81
2022/10/29 04:48:41;;;;;;;1.45;1.35;;;;;;;16.09;69.70;101425.03;5099390;28;20040;-81
2022/10/29 04:51:20;;;;;;;1.67;1.10;;;;;;;16.11;69.62;101428.50;5112742;28;20032;-81
2022/10/29 04:53:51;;;;;;;1.08;0.98;;;;;;;16.11;69.51;101428.50;5069556;29;20769;-81
2022/10/29 04:56:22;;;;;;;3.20;1.73;;;;;;;16.15;69.54;101414.22;5116260;28;20028;-81
2022/10/29 04:58:52;;;;;;;2.05;1.75;;;;;;;16.14;69.44;101417.78;5097381;29;20046;-81
2022/10/29 05:01:23;;;;;;;3.45;2.00;;;;;;;16.13;69.39;101416.06;5112825;28;20074;-81
2022/10/29 05:03:53;;;;;;;3.75;1.85;;;;;;;16.16;69.46;101418.56;5130204;28;20129;-81
2022/10/29 05:06:24;;;;;;;3.83;2.50;;;;;;;16.12;69.55;101407.25;5118339;29;20039;-81
2022/10/29 05:08:54;;;;;;;0.63;0.63;;;;;;;16.11;69.94;101404.66;5101150;29;20035;-81
2022/10/29 05:11:25;;;;;;;1.27;1.13;;;;;;;16.09;69.69;101411.81;5120451;28;20170;-81
2022/10/29 05:13:55;;;;;;;24.60;1.42;;;;;;;16.12;69.60;101411.69;5129382;28;20047;-81
2022/10/29 05:16:29;;;;;;;5.30;1.15;;;;;;;16.10;69.64;101400.28;5106169;29;20042;-81
2022/10/29 05:19:00;;;;;;;2.83;1.50;;;;;;;16.11;69.67;101412.59;5105963;29;20739;-81
2022/10/29 05:21:33;;;;;;;3.30;1.73;;;;;;;16.09;69.98;101411.81;5112881;29;20035;-81
2022/10/29 05:24:04;;;;;;;1.55;1.38;;;;;;;16.10;69.67;101414.41;5075867;29;20069;-81
2022/10/29 05:26:35;;;;;;;2.38;1.67;;;;;;;16.08;69.56;101412.72;5076570;29;20160;-81
2022/10/29 05:29:05;;;;;;;0.90;0.90;;;;;;;16.07;69.59;101409.22;5084984;29;20043;-81
2022/10/29 05:31:36;;;;;;;1.05;1.05;;;;;;;16.05;70.02;101411.06;5114733;28;20032;-81
2022/10/29 05:34:07;;;;;;;1.17;1.13;;;;;;;16.05;69.72;101400.47;5096994;28;20040;-82
2022/10/29 05:36:38;;;;;;;1.00;0.82;;;;;;;16.03;69.75;101403.19;5122766;28;20111;-82
2022/10/29 05:39:09;;;;;;;0.73;0.60;;;;;;;16.03;69.74;101407.63;5098780;28;20542;-82
2022/10/29 05:41:39;;;;;;;0.75;0.75;;;;;;;16.05;69.41;101406.66;5129615;28;20039;-81
2022/10/29 05:44:13;;;;;;;1.00;1.00;;;;;;;16.00;70.03;101405.94;5100232;29;20091;-81
2022/10/29 05:46:43;;;;;;;14.18;3.10;;;;;;;15.97;70.09;101403.44;5070259;28;20509;-82
2022/10/29 05:49:14;;;;;;;1.15;1.05;;;;;;;15.97;69.95;101403.44;5129513;28;20031;-82
2022/10/29 05:51:44;;;;;;;2.53;2.03;;;;;;;15.97;70.02;101398.13;5117513;28;20032;-82
2022/10/29 05:54:18;;;;;;;1.13;1.02;;;;;;;15.98;69.75;101393.69;5100461;29;20054;-81
2022/10/29 05:56:48;;;;;;;0.95;0.95;;;;;;;15.92;70.36;101384.22;5102631;28;20023;-82
2022/10/29 05:59:20;;;;;;;4.38;1.55;;;;;;;15.96;69.74;101385.81;5132063;28;20091;-82
2022/10/29 06:01:50;;;;;;;2.22;1.75;;;;;;;15.97;69.72;101387.56;5123970;28;20738;-82
2022/10/29 06:04:21;;;;;;;0.40;0.40;;;;;;;15.95;69.79;101383.25;5095564;29;20032;-82
2022/10/29 06:06:51;;;;;;;5.03;2.03;;;;;;;15.93;69.71;101385.94;5107046;28;20035;-82
2022/10/29 06:09:22;;;;;;;1.17;0.93;;;;;;;15.89;69.79;101387.00;5130384;28;20480;-82
2022/10/29 06:11:54;;;;;;;1.48;0.85;;;;;;;15.88;69.61;101378.19;5098367;28;20036;-83
2022/10/29 06:14:24;;;;;;;1.77;0.85;;;;;;;15.83;70.30;101373.94;5114142;29;20020;-83
2022/10/29 06:16:55;;;;;;;2.72;2.05;;;;;;;15.81;69.82;101373.16;5115036;28;20086;-82
2022/10/29 06:19:25;;;;;;;1.30;1.00;;;;;;;15.74;70.72;101365.44;5107998;28;20627;-83
2022/10/29 06:21:58;;;;;;;0.68;0.68;;;;;;;15.77;70.32;101368.91;5090753;28;20033;-82
2022/10/29 06:24:29;;;;;;;0.95;0.95;;;;;;;15.72;70.89;101377.88;5114057;28;20269;-84
2022/10/29 06:27:09;;;;;;;2.35;2.15;;;;;;;15.63;73.16;101365.00;5113233;28;20054;-85
2022/10/29 06:29:40;;;;;;;1.35;1.02;;;;;;;15.60;73.24;101361.63;5101972;29;20128;-83
2022/10/29 06:32:15;;;;;;;1.05;1.05;;;;;;;15.68;71.84;101363.03;5112441;28;20129;-83
2022/10/29 06:34:46;;;;;;;3.58;1.48;;;;;;;15.72;71.40;101359.38;5097526;29;20036;-81
2022/10/29 06:37:19;;;;;;;2.38;1.85;;;;;;;15.77;71.18;101366.25;5096542;29;20062;-82
2022/10/29 06:39:50;;;;;;;7.38;3.03;;;;;;;15.71;71.68;101367.34;5128919;28;20043;-83
2022/10/29 06:42:20;;;;;;;5.72;3.00;;;;;;;15.67;72.45;101366.59;5096594;29;20044;-82
2022/10/29 06:44:51;;;;;;;7.20;2.72;;;;;;;15.69;72.08;101380.63;5129861;28;20091;-83
2022/10/29 06:47:22;;;;;;;3.08;2.35;;;;;;;15.74;71.33;101381.31;5094991;29;20051;-82
2022/10/29 06:49:52;;;;;;;1.60;1.50;;;;;;;15.76;71.50;101380.41;5125360;28;20108;-82
2022/10/29 06:52:22;;;;;;;3.42;1.48;;;;;;;15.74;71.80;101381.31;5096448;28;20438;-82
2022/10/29 06:54:53;;;;;;;3.45;1.58;;;;;;;15.65;73.92;101378.16;5097595;28;20070;-82
2022/10/29 06:57:24;;;;;;;1.98;1.85;;;;;;;15.64;74.45;101379.97;5101860;28;20044;-83
2022/10/29 06:59:56;;;;;;;2.47;1.80;;;;;;;15.72;72.36;101377.00;5090462;29;20031;-84
2022/10/29 07:02:30;;;;;;;1.85;1.73;;;;;;;15.78;72.03;101378.56;5103165;29;20047;-83
2022/10/29 07:05:00;;;;;;;2.70;2.47;;;;;;;15.73;72.24;101374.31;5101220;29;20103;-82
2022/10/29 07:07:31;;;;;;;9.32;2.05;;;;;;;15.74;72.34;101378.66;5106825;28;20102;-82
2022/10/29 07:10:04;;;;;;;3.00;1.40;;;;;;;15.77;71.89;101367.13;5085742;29;20036;-83
2022/10/29 07:12:44;;;;;;;1.17;1.02;;;;;;;15.80;72.02;101379.38;5108840;28;20119;-83
2022/10/29 07:15:15;;;;;;;1.05;1.02;;;;;;;15.80;71.90;101387.31;5124300;28;20415;-82
2022/10/29 07:17:55;;;;;;;1.08;1.08;;;;;;;15.81;71.98;101391.69;5121847;28;20075;-81
2022/10/29 07:20:27;;;;;;;1.77;1.20;;;;;;;15.80;72.01;101392.59;5103360;29;20090;-82
2022/10/29 07:23:01;;;;;;;0.60;0.60;;;;;;;15.82;71.81;101390.78;5102168;29;20040;-82
2022/10/29 07:25:33;;;;;;;1.17;1.00;;;;;;;15.78;73.01;101397.09;5114484;28;20035;-82
2022/10/29 07:28:07;;;;;;;1.75;1.60;;;;;;;15.82;72.42;101406.66;5129200;28;20046;-82
2022/10/29 07:30:44;;;;;;;1.73;1.63;;;;;;;15.84;72.19;101403.03;5123955;28;20578;-82
2022/10/29 07:33:16;;;;;;;1.38;1.27;;;;;;;15.89;72.02;101402.88;5111583;28;20105;-84
2022/10/29 07:35:47;;;;;;;2.40;1.45;;;;;;;15.88;72.55;101403.78;5115108;28;20048;-82
2022/10/29 07:38:17;;;;;;;0.40;0.40;;;;;;;15.88;72.11;101403.78;5080183;29;20064;-83
2022/10/29 07:40:49;;;;;;;0.77;0.77;;;;;;;15.89;73.01;101397.56;5110007;28;20128;-83
2022/10/29 07:43:20;;;;;;;1.55;1.45;;;;;;;15.93;72.92;101395.69;5109308;28;20063;-82
2022/10/29 07:45:51;;;;;;;1.00;0.85;;;;;;;15.93;72.54;101395.69;5115597;29;20040;-81
2022/10/29 07:48:21;;;;;;;1.58;1.48;;;;;;;15.93;72.48;101393.88;5115600;28;20066;-83
2022/10/29 07:50:52;;;;;;;1.42;1.33;;;;;;;15.96;72.48;101396.41;5095355;29;20028;-82
2022/10/29 07:53:22;;;;;;;2.67;2.40;;;;;;;15.98;72.80;101399.88;5107279;28;20062;-82
2022/10/29 07:55:54;;;;;;;0.80;0.80;;;;;;;16.00;72.68;101392.72;5090042;29;20557;-82
2022/10/29 07:58:27;;;;;;;1.65;1.00;;;;;;;16.02;72.78;101400.63;5111317;28;20039;-82
2022/10/29 08:00:58;;;;;;;0.63;0.63;;;;;;;16.05;72.74;101396.06;5124096;28;20713;-82
2022/10/29 08:03:29;;;;;;;1.73;1.35;;;;;;;16.09;72.98;101406.50;5084114;29;20411;-82
2022/10/29 08:05:59;;;;;;;3.30;1.20;;;;;;;16.13;72.53;101405.47;5099877;29;20094;-82
2022/10/29 08:08:30;;;;;;;2.63;1.23;;;;;;;16.15;72.67;101404.50;5128639;28;20048;-82
2022/10/29 08:11:02;;;;;;;4.80;2.20;;;;;;;16.18;76.34;101395.56;5100575;29;20035;-82
2022/10/29 08:13:33;;;;;;;1.17;1.10;;;;;;;16.24;74.84;101389.16;5082020;29;20046;-82
2022/10/29 08:16:04;;;;;;;0.75;0.75;;;;;;;16.23;75.13;101388.31;5100915;29;20031;-82
2022/10/29 08:18:35;;;;;;;3.83;1.83;;;;;;;16.22;74.28;101383.94;5124748;28;20412;-82
2022/10/29 08:21:06;;;;;;;0.70;0.70;;;;;;;16.27;74.96;101373.16;5112415;29;20036;-82
2022/10/29 08:23:37;;;;;;;0.82;0.82;;;;;;;16.30;73.93;101376.53;5112977;28;20150;-82
2022/10/29 08:26:10;;;;;;;0.75;0.75;;;;;;;16.33;74.19;101384.34;5081154;29;20047;-82
2022/10/29 08:28:44;;;;;;;;;;;;;;;16.36;75.92;101384.22;5112547;28;20100;-82
2022/10/29 08:31:15;;;;;;;2.10;1.85;;;;;;;16.40;74.50;101373.53;5109497;28;19925;-82
2022/10/29 08:33:51;;;;;;;4.18;1.58;;;;;;;16.46;74.94;101379.41;5109523;29;20099;-82
2022/10/29 08:36:22;;;;;;;1.25;1.15;;;;;;;16.48;76.97;101376.72;5102329;29;20032;-82
2022/10/29 08:38:52;;;;;;;2.10;1.85;;;;;;;16.56;77.31;101373.72;5099374;28;20410;-82
2022/10/29 08:41:32;;;;;;;6.43;2.17;;;;;;;16.63;77.47;101375.19;5108102;28;20180;-82
2022/10/29 08:44:21;;;;;;;2.10;1.65;;;;;;;16.71;75.24;101366.94;5140676;28;20040;-83
2022/10/29 08:46:57;;;;;;;21.83;2.72;;;;;;;16.74;76.05;101372.09;5117654;28;20099;-83
2022/10/29 08:49:40;;;;;;;0.88;0.88;;;;;;;16.73;76.14;101373.88;5113210;29;20024;-83
2022/10/29 08:52:19;;;;;;;1.65;1.55;;;;;;;16.83;75.43;101369.03;5094078;29;20127;-83
2022/10/29 08:55:03;;;;;;;0.60;0.60;;;;;;;16.85;76.21;101359.25;5102090;29;20040;-82
2022/10/29 08:57:41;;;;;;;3.05;1.42;;;;;;;16.94;75.78;101358.88;5113895;28;20039;-82
2022/10/29 09:00:21;;;;;;;2.28;1.75;;;;;;;17.02;76.35;101357.69;5098635;29;20394;-82
2022/10/29 09:02:56;;;;;;;0.82;0.82;;;;;;;17.06;76.72;101364.59;5111704;28;20114;-82
2022/10/29 09:05:46;;;;;;;1.83;0.80;;;;;;;17.12;75.50;101364.31;5128079;28;20031;-82
2022/10/29 09:08:45;;;;;;;1.00;0.93;;;;;;;17.19;75.16;101362.25;5119935;28;20036;-83
2022/10/29 09:11:31;;;;;;;1.55;1.20;;;;;;;17.24;75.05;101365.53;5093326;29;20087;-83
2022/10/29 09:14:40;;;;;;;0.82;0.82;;;;;;;17.30;74.68;101363.50;5097983;29;20063;-83
2022/10/29 09:17:27;;;;;;;13.20;2.28;;;;;;;17.38;74.40;101370.22;5095621;29;20047;-83
2022/10/29 09:20:28;;;;;;;0.82;0.82;;;;;;;17.41;74.37;101360.34;5099673;29;20031;-82
2022/10/29 09:23:18;;;;;;;1.58;1.48;;;;;;;17.50;74.12;101359.03;5126244;28;20040;-83
2022/10/29 09:26:00;;;;;;;0.70;0.70;;;;;;;17.53;74.24;101364.22;5116447;28;20067;-83
2022/10/29 09:28:43;;;;;;;1.38;1.27;;;;;;;17.53;74.51;101358.91;5119478;28;20740;-83
2022/10/29 09:31:36;;;;;;;4.68;2.75;;;;;;;17.67;74.00;101360.06;5133713;28;20043;-83
2022/10/29 09:34:26;;;;;;;0.83;0.83;;;;;;;17.70;73.69;101349.31;5110133;28;20044;-82
2022/10/29 09:36:57;;;;;;;5.18;3.10;;;;;;;17.73;73.61;101351.78;5113607;28;20035;-83
2022/10/29 09:39:34;;;;;;;0.63;0.63;;;;;;;17.74;74.01;101348.22;5115640;29;20027;-82
2022/10/29 09:42:10;;;;;;;4.65;2.13;;;;;;;17.77;74.27;101353.38;5093320;28;20054;-83
2022/10/29 09:44:41;;;;;;;0.70;0.68;;;;;;;17.86;73.99;101352.06;5115524;28;20040;-83
2022/10/29 09:47:16;;;;;;;0.55;0.55;;;;;;;17.90;74.10;101357.16;5124550;28;20051;-83
2022/10/29 09:50:01;;;;;;;1.85;0.55;;;;;;;17.99;73.91;101360.34;5111321;28;20115;-83
2022/10/29 09:52:35;;;;;;;0.70;0.70;;;;;;;17.97;74.00;101355.13;5096801;28;20059;-83
2022/10/29 09:55:18;;;;;;;1.33;1.17;;;;;;;18.08;73.99;101357.25;5111684;28;20097;-83
2022/10/29 09:57:50;;;;;;;1.48;1.30;;;;;;;18.08;74.27;101352.81;5099021;29;20035;-82
2022/10/29 10:00:26;;;;;;;1.42;0.82;;;;;;;18.14;74.21;101358.75;5127106;28;20028;-83
2022/10/29 10:03:19;;;;;;;1.48;1.38;;;;;;;18.16;73.77;101352.44;5106962;28;20052;-83
2022/10/29 10:06:02;;;;;;;2.97;1.63;;;;;;;18.23;73.60;101345.03;5076447;29;20099;-82
2022/10/29 10:09:03;;;;;;;1.17;1.07;;;;;;;18.23;73.89;101350.34;5111138;28;20068;-82
2022/10/29 10:11:40;;;;;;;1.67;1.13;;;;;;;18.23;73.65;101340.56;5111116;29;20039;-83
2022/10/29 10:14:22;;;;;;;0.40;0.40;;;;;;;18.24;73.58;101339.63;5110794;28;20044;-83
2022/10/29 10:16:58;;;;;;;2.47;1.48;;;;;;;18.24;73.62;101342.28;5108729;28;20046;-83
2022/10/29 10:19:31;;;;;;;0.77;0.77;;;;;;;18.31;73.40;101353.47;5116596;29;20028;-83
2022/10/29 10:22:04;;;;;;;1.08;0.98;;;;;;;18.34;73.16;101352.44;5084460;28;20039;-82
2022/10/29 10:24:36;;;;;;;0.90;0.90;;;;;;;18.37;72.94;101347.84;5117092;29;20043;-83
2022/10/29 10:27:24;;;;;;;0.88;0.82;;;;;;;18.39;73.23;101339.78;5100503;28;20186;-83
2022/10/29 10:30:14;;;;;;;2.75;1.48;;;;;;;18.43;73.06;101336.06;5127074;28;20019;-82
2022/10/29 10:32:44;;;;;;;1.38;1.30;;;;;;;18.42;72.41;101338.81;5128593;28;20168;-82
2022/10/29 10:35:27;;;;;;;10.95;1.20;;;;;;;18.44;72.84;101331.59;5102314;28;20043;-83
2022/10/29 10:38:06;;;;;;;10.57;2.78;;;;;;;18.43;72.65;101335.22;5134609;28;20035;-83
2022/10/29 10:40:37;;;;;;;2.55;1.63;;;;;;;18.45;72.76;101339.50;5106850;29;20036;-83
2022/10/29 10:43:20;;;;;;;0.55;0.55;;;;;;;18.45;72.96;101339.50;5114634;28;20051;-83
2022/10/29 10:45:53;;;;;;;;;;;;;;;18.46;72.40;101335.91;5117214;29;20118;-83
2022/10/29 10:48:27;;;;;;;17.60;2.33;;;;;;;18.42;72.56;101331.69;5132571;28;19993;-83
2022/10/29 10:51:25;;;;;;;1.05;0.93;;;;;;;18.45;72.72;101334.19;5098444;28;20043;-83
2022/10/29 10:53:57;;;;;;;1.23;1.13;;;;;;;18.49;72.54;101333.09;5112518;28;20047;-83
2022/10/29 10:56:29;;;;;;;4.00;1.33;;;;;;;18.47;72.91;101332.28;5101026;29;20115;-83
2022/10/29 10:59:10;;;;;;;12.63;2.78;;;;;;;18.51;72.71;101328.56;5103248;28;20091;-83
2022/10/29 11:01:47;;;;;;;1.42;1.33;;;;;;;18.54;72.58;101322.22;5144428;28;20063;-83
2022/10/29 11:04:22;;;;;;;2.53;1.27;;;;;;;18.53;72.62;101323.16;5129213;29;20032;-82
2022/10/29 11:07:01;;;;;;;0.85;0.85;;;;;;;18.60;72.64;101315.75;5097441;28;20035;-82
2022/10/29 11:09:42;;;;;;;1.58;1.48;;;;;;;18.57;72.75;101316.75;5103941;29;20024;-82
2022/10/29 11:12:43;;;;;;;1.75;1.30;;;;;;;18.66;72.62;101307.44;5112821;28;20067;-83
2022/10/29 11:15:34;;;;;;;3.10;2.15;;;;;;;18.64;72.52;101304.00;5117987;28;20028;-82
2022/10/29 11:18:24;;;;;;;4.68;2.33;;;;;;;18.64;72.63;101310.19;5102088;29;20051;-82
2022/10/29 11:21:08;;;;;;;0.50;0.50;;;;;;;18.71;72.03;101308.09;5106310;29;20422;-82
2022/10/29 11:23:55;;;;;;;4.60;2.17;;;;;;;18.70;72.49;101311.69;5113737;28;20051;-83
2022/10/29 11:26:36;;;;;;;7.75;2.17;;;;;;;18.71;72.29;101314.25;5103657;29;20042;-82
2022/10/29 11:29:21;;;;;;;1.20;1.15;;;;;;;18.76;72.36;101306.03;5115246;28;20036;-82
2022/10/29 11:32:07;;;;;;;0.43;0.43;;;;;;;18.82;72.30;101303.03;5096898;28;20082;-82
2022/10/29 11:35:12;;;;;;;1.02;0.90;;;;;;;18.86;72.16;101304.63;5111787;29;20041;-82
2022/10/29 11:37:42;;;;;;;;;;;;;;;18.93;72.14;101301.66;5114210;28;20039;-82
2022/10/29 11:40:19;;;;;;;0.40;0.40;;;;;;;19.01;72.01;101308.28;5116599;29;19925;-83
2022/10/29 11:42:50;;;;;;;4.03;1.80;;;;;;;19.09;71.99;101296.38;5100880;29;20155;-82
2022/10/29 11:45:33;;;;;;;8.88;2.67;;;;;;;19.13;71.81;101289.94;5114247;29;20114;-83
2022/10/29 11:48:10;;;;;;;1.88;1.30;;;;;;;19.14;72.10;101281.03;5127690;28;20072;-82
2022/10/29 11:50:56;;;;;;;0.57;0.57;;;;;;;19.25;72.13;101280.44;5120096;28;20044;-82
2022/10/29 11:53:55;;;;;;;5.38;3.20;;;;;;;19.32;71.88;101282.69;5112866;28;20036;-82
2022/10/29 11:56:50;;;;;;;1.58;1.40;;;;;;;19.38;71.47;101273.47;5104705;29;20024;-82
2022/10/29 11:59:27;;;;;;;2.53;2.17;;;;;;;19.42;71.66;101277.72;5104233;28;20036;-83
2022/10/29 12:02:21;;;;;;;0.65;0.65;;;;;;;19.48;71.33;101277.34;5097367;28;20060;-83
2022/10/29 12:05:21;;;;;;;1.42;1.33;;;;;;;19.54;71.42;101270.00;5064474;29;20436;-83
2022/10/29 12:08:07;;;;;;;0.30;0.30;;;;;;;19.61;71.43;101266.03;5063472;29;20546;-83